sensor_id;sensor_type;location;lat;lon;timestamp;pressure;altitude;pressure_sealevel;temperature;humidity
19736;BME280;32064;49.310;8.646;2022-09-09T00:01:41;100068.06;;;19.76;71.23
19736;BME280;32064;49.310;8.646;2022-09-09T00:04:28;100070.53;;;19.78;70.71
19736;BME280;32064;49.310;8.646;2022-09-09T00:07:19;100076.94;;;19.68;71.72
19736;BME280;32064;49.310;8.646;2022-09-09T00:12:25;100075.91;;;19.61;70.85
19736;BME280;32064;49.310;8.646;2022-09-09T00:15:07;100069.28;;;19.65;70.68
19736;BME280;32064;49.310;8.646;2022-09-09T00:17:43;100067.75;;;19.71;70.94
19736;BME280;32064;49.310;8.646;2022-09-09T00:20:19;100072.25;;;19.62;71.43
19736;BME280;32064;49.310;8.646;2022-09-09T00:22:55;100061.41;;;19.64;71.12
19736;BME280;32064;49.310;8.646;2022-09-09T00:25:31;100059.09;;;19.61;71.64
19736;BME280;32064;49.310;8.646;2022-09-09T00:27:59;100064.59;;;19.67;70.70
19736;BME280;32064;49.310;8.646;2022-09-09T00:30:32;100059.09;;;19.61;72.05
19736;BME280;32064;49.310;8.646;2022-09-09T00:33:00;100056.75;;;19.66;71.22
19736;BME280;32064;49.310;8.646;2022-09-09T00:35:33;100062.41;;;19.63;71.00
19736;BME280;32064;49.310;8.646;2022-09-09T00:38:18;100062.22;;;19.64;71.11
19736;BME280;32064;49.310;8.646;2022-09-09T00:43:27;100060.25;;;19.66;71.72
19736;BME280;32064;49.310;8.646;2022-09-09T00:48:22;100062.94;;;19.58;71.48
19736;BME280;32064;49.310;8.646;2022-09-09T00:50:56;100067.44;;;19.58;70.96
19736;BME280;32064;49.310;8.646;2022-09-09T00:53:32;100070.63;;;19.53;71.32
19736;BME280;32064;49.310;8.646;2022-09-09T00:56:11;100074.97;;;19.54;71.90
19736;BME280;32064;49.310;8.646;2022-09-09T00:58:38;100067.66;;;19.48;72.05
19736;BME280;32064;49.310;8.646;2022-09-09T01:01:07;100067.31;;;19.51;71.53
19736;BME280;32064;49.310;8.646;2022-09-09T01:28:11;100064.75;;;19.66;72.15
19736;BME280;32064;49.310;8.646;2022-09-09T01:30:41;100065.44;;;19.68;72.01
19736;BME280;32064;49.310;8.646;2022-09-09T01:33:13;100064.75;;;19.66;72.68
19736;BME280;32064;49.310;8.646;2022-09-09T01:35:59;100065.59;;;19.66;72.04
19736;BME280;32064;49.310;8.646;2022-09-09T01:38:26;100072.91;;;19.72;72.67
19736;BME280;32064;49.310;8.646;2022-09-09T01:40:53;100079.38;;;19.78;72.60
19736;BME280;32064;49.310;8.646;2022-09-09T01:43:22;100087.72;;;19.75;73.07
19736;BME280;32064;49.310;8.646;2022-09-09T01:45:52;100088.56;;;19.76;72.47
19736;BME280;32064;49.310;8.646;2022-09-09T01:48:18;100083.41;;;19.74;72.35
19736;BME280;32064;49.310;8.646;2022-09-09T01:50:44;100083.88;;;19.78;72.29
19736;BME280;32064;49.310;8.646;2022-09-09T01:53:11;100084.44;;;19.73;73.36
19736;BME280;32064;49.310;8.646;2022-09-09T01:55:41;100089.25;;;19.69;73.87
19736;BME280;32064;49.310;8.646;2022-09-09T02:01:06;100082.94;;;19.62;73.35
19736;BME280;32064;49.310;8.646;2022-09-09T02:03:35;100080.78;;;19.58;73.33
19736;BME280;32064;49.310;8.646;2022-09-09T02:08:40;100074.63;;;19.65;73.14
19736;BME280;32064;49.310;8.646;2022-09-09T02:11:14;100064.88;;;19.64;73.54
19736;BME280;32064;49.310;8.646;2022-09-09T02:13:40;100068.78;;;19.62;73.77
19736;BME280;32064;49.310;8.646;2022-09-09T02:16:13;100073.09;;;19.63;73.92
19736;BME280;32064;49.310;8.646;2022-09-09T02:21:13;100065.59;;;19.58;74.41
19736;BME280;32064;49.310;8.646;2022-09-09T02:23:41;100070.09;;;19.66;73.97
19736;BME280;32064;49.310;8.646;2022-09-09T02:26:08;100072.78;;;19.66;74.09
19736;BME280;32064;49.310;8.646;2022-09-09T02:28:37;100074.06;;;19.70;73.79
19736;BME280;32064;49.310;8.646;2022-09-09T02:31:04;100079.91;;;19.73;74.49
19736;BME280;32064;49.310;8.646;2022-09-09T02:33:35;100075.56;;;19.64;73.71
19736;BME280;32064;49.310;8.646;2022-09-09T02:36:03;100075.91;;;19.69;73.96
19736;BME280;32064;49.310;8.646;2022-09-09T02:38:36;100080.44;;;19.69;74.22
19736;BME280;32064;49.310;8.646;2022-09-09T02:41:05;100069.41;;;19.72;73.95
19736;BME280;32064;49.310;8.646;2022-09-09T02:43:34;100071.91;;;19.73;73.93
19736;BME280;32064;49.310;8.646;2022-09-09T02:49:03;100076.94;;;19.68;74.85
19736;BME280;32064;49.310;8.646;2022-09-09T02:52:01;100079.44;;;19.62;74.94
19736;BME280;32064;49.310;8.646;2022-09-09T02:54:32;100081.59;;;19.66;74.31
19736;BME280;32064;49.310;8.646;2022-09-09T02:57:17;100071.75;;;19.67;73.77
19736;BME280;32064;49.310;8.646;2022-09-09T02:59:45;100067.09;;;19.69;73.78
19736;BME280;32064;49.310;8.646;2022-09-09T03:02:11;100066.09;;;19.62;75.00
19736;BME280;32064;49.310;8.646;2022-09-09T03:04:38;100061.59;;;19.62;74.67
19736;BME280;32064;49.310;8.646;2022-09-09T03:07:04;100059.56;;;19.64;74.31
19736;BME280;32064;49.310;8.646;2022-09-09T03:09:30;100065.75;;;19.65;74.23
19736;BME280;32064;49.310;8.646;2022-09-09T03:11:56;100068.25;;;19.66;74.71
19736;BME280;32064;49.310;8.646;2022-09-09T03:14:22;100060.41;;;19.65;73.52
19736;BME280;32064;49.310;8.646;2022-09-09T03:16:53;100063.25;;;19.63;74.57
19736;BME280;32064;49.310;8.646;2022-09-09T03:19:20;100051.91;;;19.61;74.21
19736;BME280;32064;49.310;8.646;2022-09-09T03:21:46;100056.59;;;19.59;74.07
19736;BME280;32064;49.310;8.646;2022-09-09T03:24:13;100062.09;;;19.58;73.65
19736;BME280;32064;49.310;8.646;2022-09-09T03:26:40;100058.63;;;19.49;75.11
19736;BME280;32064;49.310;8.646;2022-09-09T03:29:06;100062.97;;;19.50;74.14
19736;BME280;32064;49.310;8.646;2022-09-09T03:31:34;100074.19;;;19.45;74.63
19736;BME280;32064;49.310;8.646;2022-09-09T03:34:02;100079.66;;;19.44;74.61
19736;BME280;32064;49.310;8.646;2022-09-09T03:36:27;100066.34;;;19.36;75.11
19736;BME280;32064;49.310;8.646;2022-09-09T03:38:53;100070.75;;;19.28;75.44
19736;BME280;32064;49.310;8.646;2022-09-09T03:41:21;100075.19;;;19.36;75.05
19736;BME280;32064;49.310;8.646;2022-09-09T03:43:52;100064.50;;;19.36;75.25
19736;BME280;32064;49.310;8.646;2022-09-09T03:46:22;100064.19;;;19.39;74.13
19736;BME280;32064;49.310;8.646;2022-09-09T03:48:48;100070.53;;;19.38;75.50
19736;BME280;32064;49.310;8.646;2022-09-09T03:51:14;100066.69;;;19.41;74.67
19736;BME280;32064;49.310;8.646;2022-09-09T03:53:41;100063.53;;;19.37;75.15
19736;BME280;32064;49.310;8.646;2022-09-09T03:56:07;100065.72;;;19.34;75.82
19736;BME280;32064;49.310;8.646;2022-09-09T03:58:37;100069.84;;;19.36;74.72
19736;BME280;32064;49.310;8.646;2022-09-09T04:01:04;100063.88;;;19.34;75.20
19736;BME280;32064;49.310;8.646;2022-09-09T04:03:30;100065.84;;;19.40;74.91
19736;BME280;32064;49.310;8.646;2022-09-09T04:05:57;100071.19;;;19.40;75.17
19736;BME280;32064;49.310;8.646;2022-09-09T04:08:23;100076.19;;;19.43;74.70
19736;BME280;32064;49.310;8.646;2022-09-09T04:10:52;100065.97;;;19.47;74.96
19736;BME280;32064;49.310;8.646;2022-09-09T04:13:19;100069.81;;;19.44;75.96
19736;BME280;32064;49.310;8.646;2022-09-09T04:15:53;100076.53;;;19.40;75.07
19736;BME280;32064;49.310;8.646;2022-09-09T04:18:19;100074.53;;;19.42;75.28
19736;BME280;32064;49.310;8.646;2022-09-09T04:20:46;100078.38;;;19.40;74.92
19736;BME280;32064;49.310;8.646;2022-09-09T04:23:12;100082.22;;;19.37;74.81
19736;BME280;32064;49.310;8.646;2022-09-09T04:25:43;100090.88;;;19.39;75.22
19736;BME280;32064;49.310;8.646;2022-09-09T04:28:10;100083.16;;;19.44;74.72
19736;BME280;32064;49.310;8.646;2022-09-09T04:30:35;100097.84;;;19.48;75.02
19736;BME280;32064;49.310;8.646;2022-09-09T04:33:01;100096.81;;;19.49;74.85
19736;BME280;32064;49.310;8.646;2022-09-09T04:35:26;100090.66;;;19.49;75.80
19736;BME280;32064;49.310;8.646;2022-09-09T04:37:52;100092.66;;;19.47;75.49
19736;BME280;32064;49.310;8.646;2022-09-09T04:40:17;100097.19;;;19.46;74.53
19736;BME280;32064;49.310;8.646;2022-09-09T04:42:43;100091.16;;;19.44;74.90
19736;BME280;32064;49.310;8.646;2022-09-09T04:45:09;100093.19;;;19.42;74.64
19736;BME280;32064;49.310;8.646;2022-09-09T04:47:36;100103.69;;;19.44;75.45
19736;BME280;32064;49.310;8.646;2022-09-09T04:50:02;100105.38;;;19.45;75.01
19736;BME280;32064;49.310;8.646;2022-09-09T04:52:28;100108.53;;;19.40;75.25
19736;BME280;32064;49.310;8.646;2022-09-09T04:54:53;100108.53;;;19.40;76.08
19736;BME280;32064;49.310;8.646;2022-09-09T04:57:19;100109.22;;;19.42;75.56
19736;BME280;32064;49.310;8.646;2022-09-09T04:59:47;100103.53;;;19.45;75.75
19736;BME280;32064;49.310;8.646;2022-09-09T05:02:13;100110.34;;;19.48;75.69
19736;BME280;32064;49.310;8.646;2022-09-09T05:04:38;100113.19;;;19.46;75.39
19736;BME280;32064;49.310;8.646;2022-09-09T05:07:04;100105.19;;;19.46;75.67
19736;BME280;32064;49.310;8.646;2022-09-09T05:09:29;100104.50;;;19.44;75.59
19736;BME280;32064;49.310;8.646;2022-09-09T05:11:55;100098.81;;;19.47;74.40
19736;BME280;32064;49.310;8.646;2022-09-09T05:14:21;100108.50;;;19.48;75.46
19736;BME280;32064;49.310;8.646;2022-09-09T05:16:46;100111.66;;;19.52;74.78
19736;BME280;32064;49.310;8.646;2022-09-09T05:19:12;100112.34;;;19.54;75.21
19736;BME280;32064;49.310;8.646;2022-09-09T05:21:38;100111.31;;;19.55;74.39
19736;BME280;32064;49.310;8.646;2022-09-09T05:24:03;100122.00;;;19.55;75.14
19736;BME280;32064;49.310;8.646;2022-09-09T05:26:29;100131.84;;;19.55;74.59
19736;BME280;32064;49.310;8.646;2022-09-09T05:28:55;100126.63;;;19.61;75.71
19736;BME280;32064;49.310;8.646;2022-09-09T05:31:20;100135.66;;;19.68;75.08
19736;BME280;32064;49.310;8.646;2022-09-09T05:33:47;100137.63;;;19.74;74.45
19736;BME280;32064;49.310;8.646;2022-09-09T05:36:15;100131.13;;;19.77;74.58
19736;BME280;32064;49.310;8.646;2022-09-09T05:38:42;100128.44;;;19.77;74.71
19736;BME280;32064;49.310;8.646;2022-09-09T05:41:09;100122.63;;;19.73;74.15
19736;BME280;32064;49.310;8.646;2022-09-09T05:43:36;100122.09;;;19.78;74.93
19736;BME280;32064;49.310;8.646;2022-09-09T05:46:22;100137.47;;;19.76;73.75
19736;BME280;32064;49.310;8.646;2022-09-09T05:48:48;100137.59;;;19.83;73.92
19736;BME280;32064;49.310;8.646;2022-09-09T05:51:19;100132.47;;;19.73;74.40
19736;BME280;32064;49.310;8.646;2022-09-09T05:53:46;100133.09;;;19.83;74.23
19736;BME280;32064;49.310;8.646;2022-09-09T05:56:17;100124.72;;;19.86;73.75
19736;BME280;32064;49.310;8.646;2022-09-09T05:58:43;100137.22;;;19.94;73.82
19736;BME280;32064;49.310;8.646;2022-09-09T06:01:30;100132.03;;;19.92;74.01
19736;BME280;32064;49.310;8.646;2022-09-09T06:03:56;100135.16;;;20.04;73.34
19736;BME280;32064;49.310;8.646;2022-09-09T06:06:27;100137.28;;;20.09;73.35
19736;BME280;32064;49.310;8.646;2022-09-09T06:08:55;100143.06;;;20.21;73.60
19736;BME280;32064;49.310;8.646;2022-09-09T06:11:29;100135.53;;;20.24;72.76
19736;BME280;32064;49.310;8.646;2022-09-09T06:13:56;100147.63;;;20.35;73.10
19736;BME280;32064;49.310;8.646;2022-09-09T06:16:24;100141.41;;;20.42;72.77
19736;BME280;32064;49.310;8.646;2022-09-09T06:18:50;100139.19;;;20.54;72.88
19736;BME280;32064;49.310;8.646;2022-09-09T06:21:16;100138.03;;;20.72;72.30
19736;BME280;32064;49.310;8.646;2022-09-09T06:23:43;100139.56;;;20.89;70.89
19736;BME280;32064;49.310;8.646;2022-09-09T06:26:19;100143.91;;;21.05;71.17
19736;BME280;32064;49.310;8.646;2022-09-09T06:28:46;100141.63;;;21.17;70.85
19736;BME280;32064;49.310;8.646;2022-09-09T06:31:14;100135.38;;;21.24;70.67
19736;BME280;32064;49.310;8.646;2022-09-09T06:33:42;100144.50;;;21.30;70.48
19736;BME280;32064;49.310;8.646;2022-09-09T06:36:17;100148.13;;;21.37;70.33
19736;BME280;32064;49.310;8.646;2022-09-09T06:38:44;100139.56;;;21.71;69.81
19736;BME280;32064;49.310;8.646;2022-09-09T06:41:11;100136.81;;;22.01;68.36
19736;BME280;32064;49.310;8.646;2022-09-09T06:43:38;100139.63;;;22.14;67.98
19736;BME280;32064;49.310;8.646;2022-09-09T06:46:19;100150.25;;;22.08;68.11
19736;BME280;32064;49.310;8.646;2022-09-09T06:48:47;100143.69;;;22.10;68.05
19736;BME280;32064;49.310;8.646;2022-09-09T06:51:20;100147.53;;;22.01;67.92
19736;BME280;32064;49.310;8.646;2022-09-09T06:53:49;100141.63;;;21.91;68.16
19736;BME280;32064;49.310;8.646;2022-09-09T06:58:44;100147.44;;;21.80;67.51
19736;BME280;32064;49.310;8.646;2022-09-09T07:01:12;100149.31;;;21.79;68.33
19736;BME280;32064;49.310;8.646;2022-09-09T07:03:41;100154.03;;;21.77;68.27
19736;BME280;32064;49.310;8.646;2022-09-09T07:06:09;100148.22;;;21.88;67.49
19736;BME280;32064;49.310;8.646;2022-09-09T07:08:39;100151.31;;;22.43;65.58
19736;BME280;32064;49.310;8.646;2022-09-09T07:11:05;100156.53;;;22.73;64.98
19736;BME280;32064;49.310;8.646;2022-09-09T07:13:31;100153.19;;;25.04;58.63
19736;BME280;32064;49.310;8.646;2022-09-09T07:16:07;100162.53;;;28.01;51.52
19736;BME280;32064;49.310;8.646;2022-09-09T07:18:33;100155.03;;;30.09;46.40
19736;BME280;32064;49.310;8.646;2022-09-09T07:21:00;100155.56;;;28.23;50.55
19736;BME280;32064;49.310;8.646;2022-09-09T07:23:27;100159.16;;;29.48;47.31
19736;BME280;32064;49.310;8.646;2022-09-09T07:25:53;100159.97;;;28.90;49.07
19736;BME280;32064;49.310;8.646;2022-09-09T07:28:19;100162.47;;;27.89;50.28
19736;BME280;32064;49.310;8.646;2022-09-09T07:30:53;100158.97;;;26.45;53.61
19736;BME280;32064;49.310;8.646;2022-09-09T07:33:19;100149.97;;;25.67;55.40
19736;BME280;32064;49.310;8.646;2022-09-09T07:35:45;100157.38;;;25.92;54.02
19736;BME280;32064;49.310;8.646;2022-09-09T07:38:11;100150.97;;;26.88;52.01
19736;BME280;32064;49.310;8.646;2022-09-09T07:40:37;100160.25;;;26.42;53.58
19736;BME280;32064;49.310;8.646;2022-09-09T07:43:02;100157.97;;;26.07;54.29
19736;BME280;32064;49.310;8.646;2022-09-09T07:45:28;100163.31;;;27.02;52.26
19736;BME280;32064;49.310;8.646;2022-09-09T07:47:54;100171.69;;;29.14;48.82
19736;BME280;32064;49.310;8.646;2022-09-09T07:50:22;100160.94;;;29.94;46.04
19736;BME280;32064;49.310;8.646;2022-09-09T07:52:48;100168.22;;;27.74;50.79
19736;BME280;32064;49.310;8.646;2022-09-09T07:55:14;100166.78;;;26.59;52.65
19736;BME280;32064;49.310;8.646;2022-09-09T07:57:40;100162.44;;;27.34;50.89
19736;BME280;32064;49.310;8.646;2022-09-09T08:00:06;100175.28;;;30.47;44.70
19736;BME280;32064;49.310;8.646;2022-09-09T08:02:31;100176.69;;;32.17;41.21
19736;BME280;32064;49.310;8.646;2022-09-09T08:04:57;100176.59;;;33.30;39.75
19736;BME280;32064;49.310;8.646;2022-09-09T08:07:22;100180.03;;;34.41;37.96
19736;BME280;32064;49.310;8.646;2022-09-09T08:09:48;100178.34;;;35.48;37.25
19736;BME280;32064;49.310;8.646;2022-09-09T08:12:14;100178.97;;;36.00;35.70
19736;BME280;32064;49.310;8.646;2022-09-09T08:14:40;100180.19;;;36.33;35.42
19736;BME280;32064;49.310;8.646;2022-09-09T08:17:05;100171.84;;;34.31;38.77
19736;BME280;32064;49.310;8.646;2022-09-09T08:19:31;100168.56;;;35.01;38.48
19736;BME280;32064;49.310;8.646;2022-09-09T08:21:59;100176.06;;;36.35;34.90
19736;BME280;32064;49.310;8.646;2022-09-09T08:24:27;100173.91;;;36.27;34.83
19736;BME280;32064;49.310;8.646;2022-09-09T08:26:52;100165.81;;;34.39;36.58
19736;BME280;32064;49.310;8.646;2022-09-09T08:29:19;100178.81;;;33.96;36.94
19736;BME280;32064;49.310;8.646;2022-09-09T08:31:50;100173.16;;;31.94;38.79
19736;BME280;32064;49.310;8.646;2022-09-09T08:34:16;100181.34;;;30.37;41.90
19736;BME280;32064;49.310;8.646;2022-09-09T08:36:44;100185.13;;;29.08;44.45
19736;BME280;32064;49.310;8.646;2022-09-09T08:39:12;100190.81;;;28.16;45.71
19736;BME280;32064;49.310;8.646;2022-09-09T08:55:35;100200.88;;;25.17;54.38
19736;BME280;32064;49.310;8.646;2022-09-09T08:58:15;100200.66;;;25.05;54.72
19736;BME280;32064;49.310;8.646;2022-09-09T09:00:53;100194.00;;;25.08;55.55
19736;BME280;32064;49.310;8.646;2022-09-09T09:03:33;100194.03;;;25.28;54.83
19736;BME280;32064;49.310;8.646;2022-09-09T09:08:52;100197.91;;;25.59;55.25
19736;BME280;32064;49.310;8.646;2022-09-09T09:11:21;100199.38;;;25.54;54.85
19736;BME280;32064;49.310;8.646;2022-09-09T09:14:09;100202.44;;;25.71;55.48
19736;BME280;32064;49.310;8.646;2022-09-09T09:19:14;100199.06;;;27.91;51.39
19736;BME280;32064;49.310;8.646;2022-09-09T09:21:49;100194.69;;;31.01;45.41
19736;BME280;32064;49.310;8.646;2022-09-09T09:24:20;100191.47;;;30.87;45.84
19736;BME280;32064;49.310;8.646;2022-09-09T09:26:47;100194.69;;;31.18;45.63
19736;BME280;32064;49.310;8.646;2022-09-09T09:29:15;100199.59;;;30.13;47.38
19736;BME280;32064;49.310;8.646;2022-09-09T09:31:53;100197.00;;;30.18;46.87
19736;BME280;32064;49.310;8.646;2022-09-09T09:34:20;100198.41;;;31.68;44.68
19736;BME280;32064;49.310;8.646;2022-09-09T09:37:14;100189.78;;;31.76;44.10
19736;BME280;32064;49.310;8.646;2022-09-09T09:39:43;100189.75;;;33.49;42.11
19736;BME280;32064;49.310;8.646;2022-09-09T09:42:13;100190.47;;;34.70;39.62
19736;BME280;32064;49.310;8.646;2022-09-09T09:44:40;100184.34;;;35.55;38.01
19736;BME280;32064;49.310;8.646;2022-09-09T09:47:17;100182.53;;;36.50;35.80
19736;BME280;32064;49.310;8.646;2022-09-09T09:49:56;100183.16;;;36.36;34.47
19736;BME280;32064;49.310;8.646;2022-09-09T09:52:29;100185.94;;;35.77;36.06
19736;BME280;32064;49.310;8.646;2022-09-09T09:54:56;100187.13;;;35.40;36.60
19736;BME280;32064;49.310;8.646;2022-09-09T09:57:25;100186.47;;;33.99;38.63
19736;BME280;32064;49.310;8.646;2022-09-09T10:00:21;100189.31;;;32.82;39.29
19736;BME280;32064;49.310;8.646;2022-09-09T10:02:48;100175.97;;;32.54;38.99
19736;BME280;32064;49.310;8.646;2022-09-09T10:07:41;100192.13;;;32.93;38.23
19736;BME280;32064;49.310;8.646;2022-09-09T10:10:19;100193.72;;;31.85;40.22
19736;BME280;32064;49.310;8.646;2022-09-09T10:22:25;100192.94;;;28.98;43.28
19736;BME280;32064;49.310;8.646;2022-09-09T10:27:15;100180.69;;;28.84;45.39
19736;BME280;32064;49.310;8.646;2022-09-09T10:32:49;100170.63;;;29.03;44.35
19736;BME280;32064;49.310;8.646;2022-09-09T10:38:20;100179.59;;;31.88;40.22
19736;BME280;32064;49.310;8.646;2022-09-09T10:41:04;100177.13;;;33.85;37.10
19736;BME280;32064;49.310;8.646;2022-09-09T10:46:39;100180.63;;;36.06;34.08
19736;BME280;32064;49.310;8.646;2022-09-09T10:57:09;100152.50;;;37.94;31.03
19736;BME280;32064;49.310;8.646;2022-09-09T10:59:46;100161.38;;;38.48;30.86
19736;BME280;32064;49.310;8.646;2022-09-09T11:02:20;100168.94;;;38.89;30.20
19736;BME280;32064;49.310;8.646;2022-09-09T11:07:47;100171.63;;;38.75;29.88
19736;BME280;32064;49.310;8.646;2022-09-09T11:13:03;100159.75;;;39.54;30.05
19736;BME280;32064;49.310;8.646;2022-09-09T11:15:36;100151.84;;;38.21;28.79
19736;BME280;32064;49.310;8.646;2022-09-09T11:18:04;100154.81;;;36.85;30.24
19736;BME280;32064;49.310;8.646;2022-09-09T11:20:32;100154.34;;;35.94;31.63
19736;BME280;32064;49.310;8.646;2022-09-09T11:23:40;100159.53;;;35.31;30.66
19736;BME280;32064;49.310;8.646;2022-09-09T11:26:12;100144.63;;;36.17;30.33
19736;BME280;32064;49.310;8.646;2022-09-09T11:31:44;100152.47;;;34.94;32.14
19736;BME280;32064;49.310;8.646;2022-09-09T11:34:23;100152.44;;;34.43;32.20
19736;BME280;32064;49.310;8.646;2022-09-09T11:42:23;100147.03;;;33.17;34.06
19736;BME280;32064;49.310;8.646;2022-09-09T11:44:49;100137.59;;;32.98;34.61
19736;BME280;32064;49.310;8.646;2022-09-09T11:47:25;100137.50;;;32.82;34.98
19736;BME280;32064;49.310;8.646;2022-09-09T11:49:55;100129.25;;;32.72;34.09
19736;BME280;32064;49.310;8.646;2022-09-09T11:52:36;100122.34;;;32.59;34.93
19736;BME280;32064;49.310;8.646;2022-09-09T11:55:10;100126.22;;;32.36;34.70
19736;BME280;32064;49.310;8.646;2022-09-09T11:57:38;100112.94;;;32.45;35.47
19736;BME280;32064;49.310;8.646;2022-09-09T12:00:04;100112.50;;;32.26;35.76
19736;BME280;32064;49.310;8.646;2022-09-09T12:02:30;100111.63;;;32.48;35.09
19736;BME280;32064;49.310;8.646;2022-09-09T12:05:07;100118.00;;;32.63;35.40
19736;BME280;32064;49.310;8.646;2022-09-09T12:07:56;100114.81;;;32.72;35.57
19736;BME280;32064;49.310;8.646;2022-09-09T12:10:27;100115.38;;;32.41;35.87
19736;BME280;32064;49.310;8.646;2022-09-09T12:12:54;100102.72;;;32.57;35.05
19736;BME280;32064;49.310;8.646;2022-09-09T12:15:23;100107.69;;;32.06;35.78
19736;BME280;32064;49.310;8.646;2022-09-09T12:17:52;100106.69;;;31.68;36.24
19736;BME280;32064;49.310;8.646;2022-09-09T12:20:34;100115.19;;;31.33;35.88
19736;BME280;32064;49.310;8.646;2022-09-09T12:26:05;100118.06;;;30.37;39.17
19736;BME280;32064;49.310;8.646;2022-09-09T12:34:10;100123.00;;;29.07;42.32
19736;BME280;32064;49.310;8.646;2022-09-09T12:36:37;100123.81;;;28.84;41.02
19736;BME280;32064;49.310;8.646;2022-09-09T12:39:34;100109.72;;;28.40;43.96
19736;BME280;32064;49.310;8.646;2022-09-09T12:42:00;100113.75;;;28.19;44.01
19736;BME280;32064;49.310;8.646;2022-09-09T12:44:26;100118.13;;;27.90;44.78
19736;BME280;32064;49.310;8.646;2022-09-09T12:46:58;100112.81;;;27.65;46.23
19736;BME280;32064;49.310;8.646;2022-09-09T12:49:37;100117.00;;;27.42;46.14
19736;BME280;32064;49.310;8.646;2022-09-09T12:52:28;100124.16;;;27.37;46.11
19736;BME280;32064;49.310;8.646;2022-09-09T12:54:52;100127.09;;;27.35;47.38
19736;BME280;32064;49.310;8.646;2022-09-09T12:57:19;100139.84;;;27.28;46.84
19736;BME280;32064;49.310;8.646;2022-09-09T12:59:47;100122.19;;;27.25;48.14
19736;BME280;32064;49.310;8.646;2022-09-09T13:02:31;100125.19;;;27.17;47.24
19736;BME280;32064;49.310;8.646;2022-09-09T13:05:06;100122.53;;;27.10;46.69
19736;BME280;32064;49.310;8.646;2022-09-09T13:07:32;100128.03;;;27.22;46.36
19736;BME280;32064;49.310;8.646;2022-09-09T13:09:57;100115.31;;;27.04;46.27
19736;BME280;32064;49.310;8.646;2022-09-09T13:12:23;100115.41;;;26.98;45.78
19736;BME280;32064;49.310;8.646;2022-09-09T13:14:51;100113.00;;;26.83;46.48
19736;BME280;32064;49.310;8.646;2022-09-09T13:17:23;100118.03;;;26.54;46.32
19736;BME280;32064;49.310;8.646;2022-09-09T13:19:50;100119.09;;;26.47;46.46
19736;BME280;32064;49.310;8.646;2022-09-09T13:22:37;100143.16;;;26.16;47.43
19736;BME280;32064;49.310;8.646;2022-09-09T13:27:50;100163.84;;;25.77;48.53
19736;BME280;32064;49.310;8.646;2022-09-09T13:30:32;100174.72;;;25.51;50.53
19736;BME280;32064;49.310;8.646;2022-09-09T13:33:05;100162.31;;;25.30;52.04
19736;BME280;32064;49.310;8.646;2022-09-09T13:35:35;100150.94;;;24.95;52.42
19736;BME280;32064;49.310;8.646;2022-09-09T13:38:14;100159.63;;;24.63;53.29
19736;BME280;32064;49.310;8.646;2022-09-09T13:40:39;100144.44;;;24.42;53.43
19736;BME280;32064;49.310;8.646;2022-09-09T13:43:10;100149.38;;;24.12;53.39
19736;BME280;32064;49.310;8.646;2022-09-09T13:45:40;100136.47;;;23.94;53.56
19736;BME280;32064;49.310;8.646;2022-09-09T13:48:10;100130.31;;;24.01;54.22
19736;BME280;32064;49.310;8.646;2022-09-09T13:50:35;100128.22;;;24.03;54.64
19736;BME280;32064;49.310;8.646;2022-09-09T13:53:01;100119.78;;;24.12;54.38
19736;BME280;32064;49.310;8.646;2022-09-09T13:55:27;100111.53;;;24.20;54.75
19736;BME280;32064;49.310;8.646;2022-09-09T14:00:21;100112.59;;;24.99;56.19
19736;BME280;32064;49.310;8.646;2022-09-09T14:02:48;100119.00;;;25.25;54.57
19736;BME280;32064;49.310;8.646;2022-09-09T14:05:13;100118.00;;;25.26;54.71
19736;BME280;32064;49.310;8.646;2022-09-09T14:07:41;100118.97;;;25.51;55.84
19736;BME280;32064;49.310;8.646;2022-09-09T14:10:08;100107.13;;;25.59;54.61
19736;BME280;32064;49.310;8.646;2022-09-09T14:12:34;100106.72;;;25.49;53.64
19736;BME280;32064;49.310;8.646;2022-09-09T14:15:02;100102.19;;;25.43;54.84
19736;BME280;32064;49.310;8.646;2022-09-09T14:17:28;100102.06;;;25.11;55.41
19736;BME280;32064;49.310;8.646;2022-09-09T14:19:55;100094.63;;;25.00;55.02
19736;BME280;32064;49.310;8.646;2022-09-09T14:22:21;100103.53;;;24.87;55.55
19736;BME280;32064;49.310;8.646;2022-09-09T14:24:47;100095.88;;;24.71;54.88
19736;BME280;32064;49.310;8.646;2022-09-09T14:27:12;100094.63;;;24.67;54.71
19736;BME280;32064;49.310;8.646;2022-09-09T14:29:37;100093.59;;;24.61;55.17
19736;BME280;32064;49.310;8.646;2022-09-09T14:32:03;100099.59;;;24.63;56.74
19736;BME280;32064;49.310;8.646;2022-09-09T14:34:28;100093.59;;;24.61;55.85
19736;BME280;32064;49.310;8.646;2022-09-09T14:36:54;100105.19;;;24.61;56.08
19736;BME280;32064;49.310;8.646;2022-09-09T14:39:19;100096.69;;;24.45;55.64
19736;BME280;32064;49.310;8.646;2022-09-09T14:41:45;100099.13;;;24.39;55.89
19736;BME280;32064;49.310;8.646;2022-09-09T14:44:10;100103.94;;;24.51;56.12
19736;BME280;32064;49.310;8.646;2022-09-09T14:46:36;100106.84;;;24.49;56.10
19736;BME280;32064;49.310;8.646;2022-09-09T14:49:01;100098.13;;;24.54;55.81
19736;BME280;32064;49.310;8.646;2022-09-09T14:51:27;100108.69;;;24.62;56.05
19736;BME280;32064;49.310;8.646;2022-09-09T14:53:55;100100.41;;;24.57;56.63
19736;BME280;32064;49.310;8.646;2022-09-09T14:56:26;100105.16;;;24.48;56.19
19736;BME280;32064;49.310;8.646;2022-09-09T14:58:56;100111.94;;;24.31;56.80
19736;BME280;32064;49.310;8.646;2022-09-09T15:01:23;100105.53;;;24.25;56.81
19736;BME280;32064;49.310;8.646;2022-09-09T15:03:51;100121.47;;;24.27;58.08
19736;BME280;32064;49.310;8.646;2022-09-09T15:06:17;100120.66;;;24.26;58.05
19736;BME280;32064;49.310;8.646;2022-09-09T15:08:44;100122.94;;;24.29;57.50